WXM80 ListenWXM80 Stop

You find our weather info also at:

UK Metoffice

WeatherCloud

Weather Underground

Northeastern Weather Network

AWEKAS

Citizen Weather Observer Program (CWOP)

HAMweather, WeatherForYou, PWS Weather


Weather Underground History page Text

Daily Summary for September 2, 2016 Units:  English    Metric   Both
« Previous Day
Next Day »
Daily Weekly Monthly Yearly Custom
  High: Low: Average:
Temperature: 84.1 °F 65.8 °F 73.7 °F
Dew Point: 65.1 °F 59.1 °F 61.7 °F
Humidity: 82 % 46 % 67 %
Wind Speed: 7.2 mph 0.0 mph 2.1 mph
Wind Gust: 12.0 mph - -
Wind:- - SE
Pressure: 30.12 in 29.90 in -
Precipitation: 0.00 in    
Historical Graphs
 
 
Tabular Data for September 2, 2016
Time Temperature Dew Point Pressure Wind Wind Speed Wind Gust Humidity Rainfall Rate (Hourly)
00:01 70.4 °F 64.6 °F 29.90 in NE 5.0 mph 6.9 mph 82 % 0.00 in
00:06 70.4 °F 64.3 °F 29.90 in North 5.9 mph 9.2 mph 81 % 0.00 in
00:11 70.5 °F 64.4 °F 29.91 in North 4.6 mph 6.9 mph 81 % 0.00 in
00:16 70.5 °F 64.0 °F 29.91 in North 5.0 mph 8.1 mph 80 % 0.00 in
00:21 70.6 °F 64.5 °F 29.91 in North 3.9 mph 6.9 mph 81 % 0.00 in
00:26 70.6 °F 64.8 °F 29.91 in NNW 2.7 mph 5.8 mph 82 % 0.00 in
00:31 70.5 °F 64.7 °F 29.91 in North 3.3 mph 6.9 mph 82 % 0.00 in
00:36 70.6 °F 64.8 °F 29.91 in NNE 3.3 mph 4.6 mph 82 % 0.00 in
00:41 70.6 °F 64.5 °F 29.91 in NNW 4.2 mph 6.9 mph 81 % 0.00 in
00:46 70.6 °F 64.5 °F 29.92 in NNW 2.9 mph 3.5 mph 81 % 0.00 in
00:52 70.5 °F 64.4 °F 29.92 in NNE 2.1 mph 4.6 mph 81 % 0.00 in
00:57 70.5 °F 64.0 °F 29.92 in NNE 2.9 mph 5.8 mph 80 % 0.00 in
01:02 70.4 °F 63.9 °F 29.92 in NNE 4.1 mph 5.8 mph 80 % 0.00 in
01:07 70.3 °F 63.8 °F 29.92 in NNE 3.1 mph 7.0 mph 80 % 0.00 in
01:12 70.2 °F 63.7 °F 29.92 in North 4.8 mph 8.1 mph 80 % 0.00 in
01:17 70.2 °F 63.7 °F 29.93 in North 4.5 mph 7.0 mph 80 % 0.00 in
01:22 70.1 °F 63.6 °F 29.92 in North 4.1 mph 5.8 mph 80 % 0.00 in
01:27 70.1 °F 63.3 °F 29.92 in NNE 4.0 mph 8.1 mph 79 % 0.00 in
01:32 70.0 °F 63.2 °F 29.92 in NNE 2.8 mph 5.8 mph 79 % 0.00 in
01:37 69.9 °F 63.1 °F 29.92 in NNE 3.4 mph 6.9 mph 79 % 0.00 in
01:43 69.9 °F 62.7 °F 29.92 in NE 3.6 mph 10.4 mph 78 % 0.00 in
01:48 69.8 °F 62.3 °F 29.92 in NNE 4.5 mph 9.2 mph 77 % 0.00 in
01:53 69.8 °F 62.6 °F 29.92 in NNE 4.5 mph 10.4 mph 78 % 0.00 in
01:58 69.7 °F 61.8 °F 29.92 in North 4.5 mph 7.0 mph 76 % 0.00 in
02:03 69.6 °F 61.7 °F 29.92 in NNE 2.4 mph 4.0 mph 76 % 0.00 in
02:08 69.5 °F 61.6 °F 29.92 in NNE 4.0 mph 8.1 mph 76 % 0.00 in
02:13 69.5 °F 61.6 °F 29.92 in North 4.1 mph 8.1 mph 76 % 0.00 in
02:18 69.4 °F 61.5 °F 29.92 in NNE 3.6 mph 6.9 mph 76 % 0.00 in
02:23 69.4 °F 61.5 °F 29.92 in NNE 2.8 mph 5.8 mph 76 % 0.00 in
02:28 69.3 °F 61.4 °F 29.92 in North 2.5 mph 4.0 mph 76 % 0.00 in
02:34 69.2 °F 60.9 °F 29.93 in North 4.2 mph 5.8 mph 75 % 0.00 in
02:39 69.1 °F 60.8 °F 29.93 in NE 1.4 mph 4.0 mph 75 % 0.00 in
02:44 69.0 °F 61.1 °F 29.93 in North 2.1 mph 7.0 mph 76 % 0.00 in
02:49 68.9 °F 60.6 °F 29.92 in NNE 4.4 mph 6.9 mph 75 % 0.00 in
02:54 68.8 °F 60.6 °F 29.92 in North 4.5 mph 9.2 mph 75 % 0.00 in
02:59 68.8 °F 60.2 °F 29.93 in NNE 3.4 mph 5.8 mph 74 % 0.00 in
03:04 68.7 °F 60.5 °F 29.93 in NNE 3.6 mph 6.0 mph 75 % 0.00 in
03:09 68.7 °F 60.5 °F 29.93 in NE 2.7 mph 3.5 mph 75 % 0.00 in
03:14 68.6 °F 60.4 °F 29.92 in ENE 1.8 mph 5.8 mph 75 % 0.00 in
03:19 68.5 °F 60.3 °F 29.93 in NNE 3.5 mph 6.0 mph 75 % 0.00 in
03:25 68.5 °F 60.3 °F 29.92 in NNE 3.8 mph 9.2 mph 75 % 0.00 in
03:30 68.5 °F 60.3 °F 29.93 in North 7.2 mph 9.2 mph 75 % 0.00 in
03:35 68.5 °F 60.3 °F 29.93 in NNE 6.1 mph 9.2 mph 75 % 0.00 in
03:40 68.5 °F 60.6 °F 29.93 in North 2.7 mph 5.8 mph 76 % 0.00 in
03:45 68.5 °F 60.6 °F 29.93 in NNE 4.9 mph 6.9 mph 76 % 0.00 in
03:50 68.5 °F 60.6 °F 29.93 in North 3.2 mph 6.0 mph 76 % 0.00 in
03:55 68.4 °F 60.5 °F 29.93 in North 4.7 mph 8.1 mph 76 % 0.00 in
04:00 68.3 °F 60.4 °F 29.94 in NNE 3.3 mph 5.0 mph 76 % 0.00 in
04:05 68.3 °F 60.8 °F 29.94 in NNE 2.9 mph 4.6 mph 77 % 0.00 in
04:10 68.3 °F 61.2 °F 29.94 in NNE 2.4 mph 5.8 mph 78 % 0.00 in
04:16 68.2 °F 61.1 °F 29.94 in North 3.0 mph 5.0 mph 78 % 0.00 in
04:21 68.1 °F 61.0 °F 29.94 in North 2.0 mph 5.0 mph 78 % 0.00 in
04:26 68.0 °F 60.9 °F 29.94 in NNE 2.0 mph 7.0 mph 78 % 0.00 in
04:31 67.9 °F 60.8 °F 29.94 in NNE 5.0 mph 7.0 mph 78 % 0.00 in
04:36 67.7 °F 60.6 °F 29.94 in North 3.0 mph 7.0 mph 78 % 0.00 in
04:41 67.6 °F 60.9 °F 29.95 in North 2.0 mph 5.0 mph 79 % 0.00 in
04:46 67.4 °F 60.3 °F 29.95 in North 3.0 mph 7.0 mph 78 % 0.00 in
04:51 67.3 °F 60.6 °F 29.95 in North 3.0 mph 7.0 mph 79 % 0.00 in
04:56 67.1 °F 60.0 °F 29.96 in North 3.0 mph 6.0 mph 78 % 0.00 in
05:01 67.0 °F 60.3 °F 29.95 in North 3.4 mph 6.9 mph 79 % 0.00 in
05:06 66.8 °F 60.1 °F 29.96 in NNE 4.8 mph 9.2 mph 79 % 0.00 in
05:11 66.7 °F 59.6 °F 29.96 in North 3.8 mph 8.1 mph 78 % 0.00 in
05:16 66.6 °F 59.9 °F 29.97 in NNE 3.1 mph 6.0 mph 79 % 0.00 in
05:21 66.5 °F 59.8 °F 29.97 in North 4.2 mph 5.8 mph 79 % 0.00 in
05:26 66.4 °F 59.7 °F 29.97 in NNE 2.8 mph 6.0 mph 79 % 0.00 in
05:31 66.3 °F 59.6 °F 29.97 in North 3.4 mph 4.6 mph 79 % 0.00 in
05:36 66.2 °F 59.5 °F 29.97 in North 3.5 mph 8.1 mph 79 % 0.00 in
05:41 66.2 °F 59.5 °F 29.98 in NE 4.1 mph 5.0 mph 79 % 0.00 in
05:47 66.1 °F 59.4 °F 29.98 in North 2.0 mph 4.0 mph 79 % 0.00 in
05:52 66.0 °F 59.3 °F 29.97 in North 3.9 mph 3.9 mph 79 % 0.00 in
05:57 65.9 °F 59.2 °F 29.98 in NNE 2.2 mph 3.5 mph 79 % 0.00 in
06:02 65.9 °F 59.2 °F 29.98 in NNE 4.1 mph 5.8 mph 79 % 0.00 in
06:07 65.9 °F 59.2 °F 29.98 in NNW 4.0 mph 4.0 mph 79 % 0.00 in
06:12 65.9 °F 59.2 °F 29.98 in NNE 3.7 mph 9.2 mph 79 % 0.00 in
06:17 65.9 °F 59.6 °F 29.99 in NNE 4.5 mph 9.0 mph 80 % 0.00 in
06:22 65.9 °F 59.2 °F 29.99 in NNE 3.0 mph 4.6 mph 79 % 0.00 in
06:27 65.9 °F 59.6 °F 30.00 in NNE 3.5 mph 4.0 mph 80 % 0.00 in
06:32 65.8 °F 59.1 °F 30.00 in North 4.7 mph 8.1 mph 79 % 0.00 in
06:38 65.8 °F 59.1 °F 30.00 in North 2.1 mph 3.5 mph 79 % 0.00 in
06:43 65.8 °F 59.5 °F 30.00 in NNE 3.1 mph 4.6 mph 80 % 0.00 in
06:48 65.8 °F 59.5 °F 30.00 in NNE 5.9 mph 10.4 mph 80 % 0.00 in
06:53 65.9 °F 59.6 °F 30.00 in North 4.0 mph 6.9 mph 80 % 0.00 in
06:58 65.9 °F 59.2 °F 30.00 in NE 5.9 mph 10.4 mph 79 % 0.00 in
07:03 66.1 °F 59.4 °F 30.00 in NNW 5.5 mph 12.0 mph 79 % 0.00 in
07:08 66.2 °F 59.8 °F 30.00 in NE 3.7 mph 5.0 mph 80 % 0.00 in
07:13 66.3 °F 59.6 °F 30.00 in NNW 4.3 mph 8.1 mph 79 % 0.00 in
07:18 66.4 °F 59.7 °F 30.00 in NNW 5.9 mph 11.5 mph 79 % 0.00 in
07:23 66.4 °F 59.7 °F 30.01 in North 3.5 mph 10.4 mph 79 % 0.00 in
07:29 66.5 °F 59.4 °F 30.01 in North 4.5 mph 11.5 mph 78 % 0.00 in
07:34 66.5 °F 59.4 °F 30.01 in North 5.8 mph 8.1 mph 78 % 0.00 in
07:39 66.6 °F 59.9 °F 30.01 in North 5.0 mph 9.2 mph 79 % 0.00 in
07:44 66.7 °F 60.3 °F 30.01 in NE 4.9 mph 9.2 mph 80 % 0.00 in
07:49 66.8 °F 60.1 °F 30.01 in NE 3.6 mph 7.0 mph 79 % 0.00 in
07:54 66.8 °F 60.1 °F 30.01 in NNE 4.5 mph 6.0 mph 79 % 0.00 in
07:59 67.0 °F 60.3 °F 30.01 in NE 5.2 mph 8.1 mph 79 % 0.00 in
08:04 67.1 °F 60.4 °F 30.02 in North 3.5 mph 8.1 mph 79 % 0.00 in
08:09 67.2 °F 60.5 °F 30.02 in NNE 5.2 mph 6.9 mph 79 % 0.00 in
08:14 67.3 °F 60.2 °F 30.02 in North 2.6 mph 5.8 mph 78 % 0.00 in
08:20 67.4 °F 60.3 °F 30.02 in NNW 2.9 mph 5.8 mph 78 % 0.00 in
08:25 67.5 °F 60.4 °F 30.02 in NNE 6.0 mph 9.2 mph 78 % 0.00 in
08:30 67.6 °F 60.5 °F 30.02 in NNE 4.6 mph 6.9 mph 78 % 0.00 in
08:35 67.7 °F 60.2 °F 30.02 in NNE 3.1 mph 5.8 mph 77 % 0.00 in
08:40 67.9 °F 60.4 °F 30.02 in NE 4.1 mph 10.0 mph 77 % 0.00 in
08:45 68.0 °F 60.2 °F 30.02 in NNE 6.8 mph 10.4 mph 76 % 0.00 in
08:51 68.1 °F 60.3 °F 30.02 in NNE 2.0 mph 6.0 mph 76 % 0.00 in
08:56 68.4 °F 60.1 °F 30.02 in NE 1.0 mph 10.0 mph 75 % 0.00 in
09:01 68.5 °F 60.3 °F 30.03 in North 3.0 mph 6.0 mph 75 % 0.00 in
09:06 68.7 °F 60.1 °F 30.03 in ENE 2.9 mph 4.6 mph 74 % 0.00 in
09:11 68.8 °F 60.2 °F 30.03 in NNE 4.2 mph 6.9 mph 74 % 0.00 in
09:16 68.8 °F 60.6 °F 30.03 in North 3.4 mph 5.0 mph 75 % 0.00 in
09:21 68.9 °F 60.3 °F 30.03 in North 1.5 mph 3.5 mph 74 % 0.00 in
09:26 69.1 °F 60.5 °F 30.03 in North 3.3 mph 5.0 mph 74 % 0.00 in
09:31 69.3 °F 60.3 °F 30.03 in NNE 3.1 mph 4.6 mph 73 % 0.00 in
09:36 69.5 °F 60.5 °F 30.03 in NNE 0.6 mph 2.0 mph 73 % 0.00 in
09:41 69.8 °F 60.8 °F 30.03 in North 3.9 mph 5.0 mph 73 % 0.00 in
09:46 70.3 °F 61.6 °F 30.04 in North 1.0 mph 3.5 mph 74 % 0.00 in
09:51 71.1 °F 61.6 °F 30.04 in ENE 2.9 mph 7.0 mph 72 % 0.00 in
09:57 71.9 °F 60.8 °F 30.04 in NNW 1.9 mph 3.5 mph 68 % 0.00 in
10:02 72.6 °F 61.4 °F 30.04 in NNE 0.8 mph 3.5 mph 68 % 0.00 in
10:07 73.1 °F 62.7 °F 30.04 in NNE 0.2 mph 1.2 mph 70 % 0.00 in
10:12 73.5 °F 62.3 °F 30.04 in North 2.3 mph 3.5 mph 68 % 0.00 in
10:17 73.6 °F 62.0 °F 30.04 in NNE 3.2 mph 4.6 mph 67 % 0.00 in
10:22 73.5 °F 61.0 °F 30.04 in NW 0.9 mph 6.9 mph 65 % 0.00 in
10:27 73.4 °F 60.9 °F 30.04 in North 2.2 mph 4.6 mph 65 % 0.00 in
10:32 73.2 °F 61.2 °F 30.04 in NNE 1.6 mph 3.5 mph 66 % 0.00 in
10:37 73.0 °F 61.0 °F 30.04 in ENE 1.0 mph 2.3 mph 66 % 0.00 in
10:43 72.8 °F 60.8 °F 30.04 in NE 1.0 mph 3.5 mph 66 % 0.00 in
10:48 72.8 °F 60.8 °F 30.04 in NNE 1.9 mph 3.5 mph 66 % 0.00 in
10:53 73.0 °F 61.8 °F 30.04 in NNW 1.2 mph 3.5 mph 68 % 0.00 in
10:58 73.5 °F 61.4 °F 30.03 in North 2.2 mph 5.0 mph 66 % 0.00 in
11:03 74.1 °F 61.6 °F 30.04 in Calm   1.2 mph 65 % 0.00 in
11:08 75.2 °F 62.2 °F 30.04 in North 3.2 mph 5.8 mph 64 % 0.00 in
11:13 76.0 °F 61.6 °F 30.04 in North 0.1 mph 3.5 mph 61 % 0.00 in
11:18 76.8 °F 62.8 °F 30.04 in WNW 1.1 mph 3.5 mph 62 % 0.00 in
11:23 77.7 °F 63.2 °F 30.04 in NNE 0.2 mph 2.3 mph 61 % 0.00 in
11:28 78.5 °F 62.5 °F 30.04 in NNE 2.9 mph 4.6 mph 58 % 0.00 in
11:34 79.0 °F 62.0 °F 30.03 in NNW 3.7 mph 6.9 mph 56 % 0.00 in
11:39 79.3 °F 61.7 °F 30.03 in Calm   2.3 mph 55 % 0.00 in
11:44 79.6 °F 63.0 °F 30.03 in Calm   3.5 mph 57 % 0.00 in
11:49 80.0 °F 62.4 °F 30.03 in WNW 2.7 mph 3.5 mph 55 % 0.00 in
11:54 80.1 °F 63.0 °F 30.03 in North 2.2 mph 4.0 mph 56 % 0.00 in
11:59 80.4 °F 62.2 °F 30.03 in ENE 1.1 mph 3.0 mph 54 % 0.00 in
12:04 80.8 °F 63.6 °F 30.04 in North 2.2 mph 4.6 mph 56 % 0.00 in
12:09 81.1 °F 62.3 °F 30.04 in Calm   3.5 mph 53 % 0.00 in
12:14 81.8 °F 65.1 °F 30.04 in Calm     57 % 0.00 in
12:19 82.0 °F 62.1 °F 30.04 in NNW 3.0 mph 4.6 mph 51 % 0.00 in
12:25 82.3 °F 63.5 °F 30.04 in NNE 1.4 mph 3.5 mph 53 % 0.00 in
12:30 82.6 °F 61.5 °F 30.05 in West 1.3 mph 3.0 mph 49 % 0.00 in
12:35 82.5 °F 61.4 °F 30.04 in NNE 1.8 mph 4.6 mph 49 % 0.00 in
12:40 82.8 °F 62.8 °F 30.05 in North 1.8 mph 3.5 mph 51 % 0.00 in
12:45 83.1 °F 62.5 °F 30.05 in Calm     50 % 0.00 in
12:50 83.5 °F 64.0 °F 30.04 in NNE 1.3 mph 2.3 mph 52 % 0.00 in
12:55 83.7 °F 64.2 °F 30.04 in NW 0.3 mph 2.3 mph 52 % 0.00 in
13:00 84.0 °F 61.6 °F 30.05 in WNW 0.1 mph 3.5 mph 47 % 0.00 in
13:05 84.0 °F 61.6 °F 30.05 in NNW 2.4 mph 4.0 mph 47 % 0.00 in
13:10 84.0 °F 63.4 °F 30.05 in NNE 1.2 mph 3.5 mph 50 % 0.00 in
13:16 84.1 °F 61.1 °F 30.05 in NW 0.4 mph 2.3 mph 46 % 0.00 in
13:21 84.1 °F 64.0 °F 30.05 in North 2.0 mph 6.0 mph 51 % 0.00 in
13:26 84.1 °F 62.2 °F 30.05 in NNE 1.0 mph 5.0 mph 48 % 0.00 in
13:31 83.9 °F 63.3 °F 30.04 in WSW 2.7 mph 4.0 mph 50 % 0.00 in
13:36 83.9 °F 62.1 °F 30.04 in Calm   6.0 mph 48 % 0.00 in
13:41 84.1 °F 64.0 °F 30.04 in North 3.0 mph 7.0 mph 51 % 0.00 in
13:46 83.8 °F 63.2 °F 30.04 in North 3.5 mph 5.8 mph 50 % 0.00 in
13:51 83.8 °F 63.7 °F 30.04 in North 3.0 mph 6.0 mph 51 % 0.00 in
13:56 83.9 °F 62.7 °F 30.04 in North 2.0 mph 6.0 mph 49 % 0.00 in
14:01 84.1 °F 62.3 °F 30.04 in WNW 3.4 mph 6.9 mph 48 % 0.00 in
14:06 84.1 °F 62.9 °F 30.04 in NNW 3.0 mph 8.0 mph 49 % 0.00 in
14:11 83.9 °F 62.7 °F 30.04 in North 3.0 mph 8.0 mph 49 % 0.00 in
14:16 83.8 °F 64.3 °F 30.04 in North 1.6 mph 6.9 mph 52 % 0.00 in
14:21 84.0 °F 63.9 °F 30.04 in North 2.0 mph 7.0 mph 51 % 0.00 in
14:26 84.1 °F 62.9 °F 30.04 in NNW 1.0 mph 7.0 mph 49 % 0.00 in
14:31 83.9 °F 62.7 °F 30.05 in NW 2.0 mph 5.0 mph 49 % 0.00 in
14:36 83.9 °F 62.7 °F 30.04 in NW 3.0 mph 7.0 mph 49 % 0.00 in
14:41 83.6 °F 62.4 °F 30.04 in NNW 2.0 mph 7.0 mph 49 % 0.00 in
14:46 83.5 °F 64.6 °F 30.05 in NNW 2.5 mph 4.0 mph 53 % 0.00 in
14:51 83.6 °F 63.5 °F 30.05 in North 2.0 mph 6.0 mph 51 % 0.00 in
14:56 83.4 °F 63.4 °F 30.05 in North 2.0 mph 6.0 mph 51 % 0.00 in
15:01 83.5 °F 65.1 °F 30.04 in North 0.7 mph 1.2 mph 54 % 0.00 in
15:06 83.6 °F 63.0 °F 30.05 in NNW 2.0 mph 5.0 mph 50 % 0.00 in
15:11 83.6 °F 63.0 °F 30.04 in NNW 1.0 mph 4.0 mph 50 % 0.00 in
15:16 83.4 °F 62.8 °F 30.04 in North 1.0 mph 4.0 mph 50 % 0.00 in
15:21 83.5 °F 63.5 °F 30.04 in North 1.0 mph 5.0 mph 51 % 0.00 in
15:26 83.4 °F 62.2 °F 30.04 in NW 2.0 mph 5.0 mph 49 % 0.00 in
15:31 83.3 °F 62.7 °F 30.04 in NW 1.0 mph 5.0 mph 50 % 0.00 in
15:35 83.1 °F 62.0 °F 30.04 in North 0.5 mph 3.0 mph 49 % 0.00 in
15:41 82.9 °F 62.4 °F 30.04 in NNW 1.0 mph 6.0 mph 50 % 0.00 in
15:46 82.9 °F 63.5 °F 30.04 in NW 1.0 mph 5.0 mph 52 % 0.00 in
15:51 82.7 °F 62.2 °F 30.04 in Calm   3.0 mph 50 % 0.00 in
15:56 82.7 °F 64.4 °F 30.04 in Calm   3.0 mph 54 % 0.00 in
16:01 82.7 °F 61.0 °F 30.04 in North 0.8 mph 3.5 mph 48 % 0.00 in
16:06 82.6 °F 62.7 °F 30.04 in North 1.0 mph 6.0 mph 51 % 0.00 in
16:11 82.5 °F 61.4 °F 30.04 in Calm   4.0 mph 49 % 0.00 in
16:16 82.3 °F 62.4 °F 30.04 in North 1.0 mph 3.0 mph 51 % 0.00 in
16:21 82.2 °F 61.7 °F 30.04 in NNE 0.3 mph 1.2 mph 50 % 0.00 in
16:26 82.1 °F 62.2 °F 30.04 in Calm   2.0 mph 51 % 0.00 in
16:31 82.0 °F 62.1 °F 30.03 in Calm   4.0 mph 51 % 0.00 in
16:36 81.9 °F 62.0 °F 30.04 in NNE 1.0 mph 4.0 mph 51 % 0.00 in
16:41 82.0 °F 62.6 °F 30.03 in Calm   3.0 mph 52 % 0.00 in
16:46 82.0 °F 62.1 °F 30.04 in NE 1.0 mph 2.0 mph 51 % 0.00 in
16:51 81.8 °F 61.9 °F 30.03 in NE 0.6 mph 1.2 mph 51 % 0.00 in
16:56 81.6 °F 61.7 °F 30.03 in Calm   2.0 mph 51 % 0.00 in
17:01 81.5 °F 62.7 °F 30.03 in NE 1.1 mph 3.0 mph 53 % 0.00 in
17:06 81.5 °F 62.7 °F 30.03 in Calm   1.2 mph 53 % 0.00 in
17:11 81.3 °F 60.9 °F 30.03 in NE 1.0 mph 3.5 mph 50 % 0.00 in
17:16 81.0 °F 61.7 °F 30.03 in NE 0.5 mph 1.2 mph 52 % 0.00 in
17:21 80.7 °F 62.0 °F 30.04 in Calm     53 % 0.00 in
17:26 80.3 °F 61.1 °F 30.04 in Calm   1.2 mph 52 % 0.00 in
17:31 80.1 °F 62.0 °F 30.04 in NE 0.1 mph 1.2 mph 54 % 0.00 in
17:36 79.8 °F 61.1 °F 30.04 in NE 0.4 mph 2.3 mph 53 % 0.00 in
17:41 79.5 °F 61.9 °F 30.04 in NE 0.2 mph 1.2 mph 55 % 0.00 in
17:46 79.1 °F 61.5 °F 30.04 in SE 0.6 mph 1.2 mph 55 % 0.00 in
17:52 78.9 °F 61.9 °F 30.04 in SE 0.1 mph 1.2 mph 56 % 0.00 in
17:57 78.7 °F 62.7 °F 30.04 in Calm   1.2 mph 58 % 0.00 in
18:02 78.4 °F 61.9 °F 30.05 in Calm     57 % 0.00 in
18:07 78.2 °F 61.7 °F 30.05 in Calm     57 % 0.00 in
18:12 77.9 °F 61.4 °F 30.05 in Calm     57 % 0.00 in
18:17 77.7 °F 61.7 °F 30.05 in Calm     58 % 0.00 in
18:22 77.5 °F 61.6 °F 30.05 in Calm     58 % 0.00 in
18:27 77.3 °F 61.4 °F 30.05 in Calm     58 % 0.00 in
18:32 77.4 °F 61.5 °F 30.05 in Calm   1.2 mph 58 % 0.00 in
18:37 77.4 °F 61.5 °F 30.05 in Calm   1.2 mph 58 % 0.00 in
18:43 77.4 °F 61.5 °F 30.05 in Calm   1.2 mph 58 % 0.00 in
18:48 77.3 °F 61.4 °F 30.05 in Calm   1.2 mph 58 % 0.00 in
18:53 77.2 °F 61.3 °F 30.05 in Calm   1.2 mph 58 % 0.00 in
18:58 77.0 °F 61.1 °F 30.05 in Calm     58 % 0.00 in
19:03 76.7 °F 61.3 °F 30.05 in Calm     59 % 0.00 in
19:08 76.5 °F 61.1 °F 30.05 in Calm     59 % 0.00 in
19:13 76.3 °F 60.9 °F 30.05 in Calm     59 % 0.00 in
19:18 76.1 °F 60.7 °F 30.05 in Calm     59 % 0.00 in
19:23 75.8 °F 60.9 °F 30.05 in Calm     60 % 0.00 in
19:28 75.6 °F 61.2 °F 30.06 in Calm     61 % 0.00 in
19:34 75.4 °F 61.0 °F 30.06 in Calm     61 % 0.00 in
19:39 75.2 °F 60.8 °F 30.06 in Calm     61 % 0.00 in
19:44 75.1 °F 61.2 °F 30.06 in SE 0.3 mph 1.2 mph 62 % 0.00 in
19:49 75.0 °F 61.1 °F 30.06 in SE 0.1 mph 1.2 mph 62 % 0.00 in
19:54 74.8 °F 61.4 °F 30.06 in Calm     63 % 0.00 in
19:59 74.6 °F 61.2 °F 30.06 in Calm     63 % 0.00 in
20:04 74.3 °F 60.9 °F 30.06 in Calm     63 % 0.00 in
20:09 74.1 °F 62.0 °F 30.06 in Calm     66 % 0.00 in
20:14 73.9 °F 61.8 °F 30.07 in Calm     66 % 0.00 in
20:19 73.6 °F 62.0 °F 30.07 in Calm     67 % 0.00 in
20:25 73.4 °F 62.2 °F 30.07 in Calm     68 % 0.00 in
20:30 73.1 °F 61.9 °F 30.08 in Calm     68 % 0.00 in
20:35 72.8 °F 62.0 °F 30.08 in Calm     69 % 0.00 in
20:40 72.6 °F 61.8 °F 30.08 in Calm     69 % 0.00 in
20:45 72.2 °F 61.9 °F 30.08 in Calm     70 % 0.00 in
20:50 72.0 °F 61.7 °F 30.09 in Calm     70 % 0.00 in
20:55 71.9 °F 62.0 °F 30.09 in Calm     71 % 0.00 in
21:00 71.7 °F 61.8 °F 30.09 in Calm     71 % 0.00 in
21:05 71.4 °F 61.9 °F 30.09 in Calm     72 % 0.00 in
21:10 71.3 °F 61.8 °F 30.09 in Calm     72 % 0.00 in
21:15 71.1 °F 62.0 °F 30.09 in Calm     73 % 0.00 in
21:21 70.9 °F 62.2 °F 30.09 in Calm     74 % 0.00 in
21:25 70.7 °F 62.0 °F 30.08 in Calm     74 % 0.00 in
21:31 70.6 °F 62.3 °F 30.08 in Calm     75 % 0.00 in
21:36 70.4 °F 62.1 °F 30.08 in Calm     75 % 0.00 in
21:40 70.3 °F 62.4 °F 30.09 in Calm     76 % 0.00 in
21:46 70.1 °F 62.2 °F 30.09 in ESE 1.0 mph 2.0 mph 76 % 0.00 in
21:50 70.0 °F 62.5 °F 30.09 in NNW 2.0 mph 4.0 mph 77 % 0.00 in
21:55 69.9 °F 62.0 °F 30.09 in North 0.2 mph   76 % 0.00 in
22:01 69.8 °F 61.1 °F 30.09 in NNE 4.8 mph 6.9 mph 74 % 0.00 in
22:06 69.8 °F 61.1 °F 30.09 in NE 1.8 mph 4.0 mph 74 % 0.00 in
22:11 69.9 °F 61.2 °F 30.09 in North 3.7 mph 9.0 mph 74 % 0.00 in
22:16 70.2 °F 61.5 °F 30.09 in NNE 5.3 mph 8.1 mph 74 % 0.00 in
22:21 70.5 °F 61.8 °F 30.09 in NNE 2.9 mph 4.0 mph 74 % 0.00 in
22:26 70.7 °F 62.4 °F 30.09 in North 1.6 mph 5.0 mph 75 % 0.00 in
22:31 70.9 °F 62.6 °F 30.09 in NE 0.3 mph 2.3 mph 75 % 0.00 in
22:36 71.1 °F 62.4 °F 30.09 in North 0.8 mph 2.3 mph 74 % 0.00 in
22:42 71.2 °F 62.9 °F 30.09 in East 1.2 mph 3.5 mph 75 % 0.00 in
22:47 71.3 °F 61.4 °F 30.10 in ENE 2.3 mph 3.5 mph 71 % 0.00 in
22:52 71.3 °F 61.4 °F 30.10 in NE 2.2 mph 3.5 mph 71 % 0.00 in
22:57 71.6 °F 61.7 °F 30.10 in NE 3.9 mph 6.9 mph 71 % 0.00 in
23:02 71.9 °F 61.2 °F 30.11 in East 4.7 mph 9.2 mph 69 % 0.00 in
23:07 72.1 °F 62.2 °F 30.11 in ENE 1.8 mph 3.5 mph 71 % 0.00 in
23:12 72.3 °F 62.8 °F 30.11 in ENE 0.3 mph 1.2 mph 72 % 0.00 in
23:17 72.2 °F 63.1 °F 30.11 in ENE 0.2 mph   73 % 0.00 in
23:22 72.2 °F 63.1 °F 30.11 in Calm     73 % 0.00 in
23:27 72.0 °F 62.5 °F 30.11 in Calm     72 % 0.00 in
23:33 72.0 °F 62.9 °F 30.12 in Calm     73 % 0.00 in
23:38 71.9 °F 62.4 °F 30.12 in Calm     72 % 0.00 in
23:43 71.7 °F 62.2 °F 30.12 in Calm     72 % 0.00 in
23:48 71.5 °F 62.0 °F 30.12 in Calm     72 % 0.00 in
23:53 71.4 °F 61.9 °F 30.12 in Calm     72 % 0.00 in
23:58 71.2 °F 61.7 °F 30.12 in Calm     72 % 0.00 in
Crab Meadow Weather
Compliments of Weather Underground - 3 mb

Script developed by  Jim McMurry - jmcmurry@mwt.net Adapted for the template by  Wim van der Kuil - Leuven-Template.eu

Astronomy: Pluto is not a planet, because it does not have a fixed orbit and it's orbit comes in between the orbit of another planet (Neptune).